KBWG 190853Z AUTO 21004KT 10SM FEW095 23/21 A2982 RMK AO2 SLP090 T02280206 56009 $